Time,TemperatureF,DewpointF,PressureIn,WindDirection,WindDirectionDegrees,WindSpeedMPH,WindSpeedGustMPH,Humidity,HourlyPrecipIn,Conditions,Clouds,dailyrainin,SoftwareType,DateUTC
2013-01-27 00:09:00,20.3,8.2,30.20,NE,36,5.0,9.0,59,0.00,,,0.00,Wunderground v.1.15,2013-01-27 05:09:00,
2013-01-27 00:19:00,20.2,8.5,30.20,NW,315,6.0,6.0,60,0.00,,,0.00,Wunderground v.1.15,2013-01-27 05:19:00,
2013-01-27 00:29:00,20.4,9.4,30.20,NW,310,4.0,7.0,62,0.00,,,0.00,Wunderground v.1.15,2013-01-27 05:29:00,
2013-01-27 00:39:00,20.5,9.2,30.20,West,280,5.0,9.0,61,0.00,,,0.00,Wunderground v.1.15,2013-01-27 05:39:00,
2013-01-27 00:49:00,20.5,9.2,30.20,WNW,296,6.0,6.0,61,0.00,,,0.00,Wunderground v.1.15,2013-01-27 05:49:00,
2013-01-27 00:59:00,20.5,9.2,30.20,SSW,206,6.0,6.0,61,0.00,,,0.00,Wunderground v.1.15,2013-01-27 05:59:00,
2013-01-27 01:09:00,20.5,10.2,30.22,WNW,286,5.0,6.0,64,0.00,,,0.00,Wunderground v.1.15,2013-01-27 06:09:00,
2013-01-27 01:19:00,20.5,9.9,30.22,NW,313,4.0,7.0,63,0.00,,,0.00,Wunderground v.1.15,2013-01-27 06:19:00,
2013-01-27 01:29:00,20.6,10.0,30.22,SSW,205,5.0,7.0,63,0.00,,,0.00,Wunderground v.1.15,2013-01-27 06:29:00,
2013-01-27 01:39:00,20.4,9.4,30.22,SW,229,5.0,9.0,62,0.00,,,0.00,Wunderground v.1.15,2013-01-27 06:39:00,
2013-01-27 01:49:00,20.5,10.2,30.23,WNW,294,5.0,9.0,64,0.00,,,0.00,Wunderground v.1.15,2013-01-27 06:49:00,
2013-01-27 01:59:00,20.5,10.6,30.23,North,5,4.0,4.0,65,0.00,,,0.00,Wunderground v.1.15,2013-01-27 06:59:00,
2013-01-27 02:09:00,20.4,10.1,30.24,West,268,5.0,5.0,64,0.00,,,0.00,Wunderground v.1.15,2013-01-27 07:09:00,
2013-01-27 02:18:00,20.4,10.1,30.25,West,262,5.0,7.0,64,0.00,,,0.00,Wunderground v.1.15,2013-01-27 07:18:00,
2013-01-27 02:29:00,20.6,10.0,30.25,WNW,290,4.0,6.0,63,0.00,,,0.00,Wunderground v.1.15,2013-01-27 07:29:00,
2013-01-27 02:39:00,20.6,10.0,30.25,WNW,284,5.0,5.0,63,0.00,,,0.00,Wunderground v.1.15,2013-01-27 07:39:00,
2013-01-27 02:49:00,20.6,10.3,30.25,WNW,296,4.0,5.0,64,0.00,,,0.00,Wunderground v.1.15,2013-01-27 07:49:00,
2013-01-27 02:58:00,20.9,11.7,30.25,NW,310,4.0,4.0,67,0.00,,,0.00,Wunderground v.1.15,2013-01-27 07:58:00,
2013-01-27 03:08:00,20.8,10.9,30.25,ENE,69,4.0,4.0,65,0.00,,,0.00,Wunderground v.1.15,2013-01-27 08:08:00,
2013-01-27 03:19:00,20.9,11.3,30.25,SSW,210,5.0,5.0,66,0.00,,,0.00,Wunderground v.1.15,2013-01-27 08:19:00,
2013-01-27 03:30:00,20.9,11.3,30.25,NNE,24,4.0,4.0,66,0.00,,,0.00,Wunderground v.1.15,2013-01-27 08:30:00,
2013-01-27 03:40:00,21.0,11.8,30.25,SE,140,5.0,5.0,67,0.00,,,0.00,Wunderground v.1.15,2013-01-27 08:40:00,
2013-01-27 03:49:00,20.9,11.3,30.25,North,350,3.0,4.0,66,0.00,,,0.00,Wunderground v.1.15,2013-01-27 08:49:00,
2013-01-27 03:59:00,21.0,11.1,30.25,WSW,256,4.0,4.0,65,0.00,,,0.00,Wunderground v.1.15,2013-01-27 08:59:00,
2013-01-27 04:09:00,21.0,11.1,30.26,NE,36,4.0,8.0,65,0.00,,,0.00,Wunderground v.1.15,2013-01-27 09:09:00,
2013-01-27 04:19:00,21.1,11.5,30.26,WSW,238,4.0,4.0,66,0.00,,,0.00,Wunderground v.1.15,2013-01-27 09:19:00,
2013-01-27 04:29:00,21.2,11.6,30.26,West,265,4.0,4.0,66,0.00,,,0.00,Wunderground v.1.15,2013-01-27 09:29:00,
2013-01-27 04:39:00,21.2,11.3,30.26,SW,229,6.0,11.0,65,0.00,,,0.00,Wunderground v.1.15,2013-01-27 09:39:00,
2013-01-27 04:49:00,21.1,12.2,30.26,West,280,5.0,10.0,68,0.00,,,0.00,Wunderground v.1.15,2013-01-27 09:49:00,
2013-01-27 04:59:00,21.1,11.8,30.26,NE,34,5.0,6.0,67,0.00,,,0.00,Wunderground v.1.15,2013-01-27 09:59:00,
2013-01-27 05:09:00,21.1,12.2,30.26,WSW,249,6.0,11.0,68,0.00,,,0.00,Wunderground v.1.15,2013-01-27 10:09:00,
2013-01-27 05:19:00,21.1,11.8,30.26,ENE,61,6.0,6.0,67,0.00,,,0.00,Wunderground v.1.15,2013-01-27 10:19:00,
2013-01-27 05:29:00,21.1,12.2,30.26,South,183,5.0,5.0,68,0.00,,,0.00,Wunderground v.1.15,2013-01-27 10:29:00,
2013-01-27 05:39:00,21.0,11.8,30.27,WSW,248,5.0,6.0,67,0.00,,,0.00,Wunderground v.1.15,2013-01-27 10:39:00,
2013-01-27 05:49:00,21.1,12.2,30.28,SE,138,5.0,5.0,68,0.00,,,0.00,Wunderground v.1.15,2013-01-27 10:49:00,
2013-01-27 05:59:00,21.1,12.5,30.28,SW,221,4.0,4.0,69,0.00,,,0.00,Wunderground v.1.15,2013-01-27 10:59:00,
2013-01-27 06:09:00,20.9,12.3,30.29,North,355,4.0,6.0,69,0.00,,,0.00,Wunderground v.1.15,2013-01-27 11:09:00,
2013-01-27 06:19:00,21.0,12.7,30.29,NW,317,4.0,9.0,70,0.00,,,0.00,Wunderground v.1.15,2013-01-27 11:19:00,
2013-01-27 06:29:00,20.9,12.6,30.29,NW,310,4.0,11.0,70,0.00,,,0.00,Wunderground v.1.15,2013-01-27 11:29:00,
2013-01-27 06:39:00,21.0,13.1,30.29,ESE,123,5.0,5.0,71,0.00,,,0.00,Wunderground v.1.15,2013-01-27 11:39:00,
2013-01-27 06:49:00,20.9,12.6,30.30,SSW,213,5.0,5.0,70,0.00,,,0.00,Wunderground v.1.15,2013-01-27 11:49:00,
2013-01-27 06:59:00,20.9,13.0,30.30,West,271,5.0,5.0,71,0.00,,,0.00,Wunderground v.1.15,2013-01-27 11:59:00,
2013-01-27 07:09:00,20.9,13.0,30.30,WNW,298,4.0,5.0,71,0.00,,,0.00,Wunderground v.1.15,2013-01-27 12:09:00,
2013-01-27 07:19:00,21.0,13.1,30.31,ENE,69,4.0,5.0,71,0.00,,,0.00,Wunderground v.1.15,2013-01-27 12:19:00,
2013-01-27 07:29:00,20.9,13.0,30.31,SW,226,4.0,4.0,71,0.00,,,0.00,Wunderground v.1.15,2013-01-27 12:29:00,
2013-01-27 07:39:00,21.2,13.3,30.31,SW,221,4.0,4.0,71,0.00,,,0.00,Wunderground v.1.15,2013-01-27 12:39:00,
2013-01-27 07:49:00,21.5,13.5,30.32,NE,52,5.0,5.0,71,0.00,,,0.00,Wunderground v.1.15,2013-01-27 12:49:00,
2013-01-27 07:58:00,21.7,13.4,30.32,SSE,149,5.0,5.0,70,0.00,,,0.00,Wunderground v.1.15,2013-01-27 12:58:00,
2013-01-27 08:09:00,21.9,13.6,30.32,WSW,248,6.0,6.0,70,0.00,,,0.00,Wunderground v.1.15,2013-01-27 13:09:00,
2013-01-27 08:19:00,22.0,13.7,30.33,NE,44,6.0,6.0,70,0.00,,,0.00,Wunderground v.1.15,2013-01-27 13:19:00,
2013-01-27 08:29:00,22.1,13.1,30.33,East,83,6.0,6.0,68,0.00,,,0.00,Wunderground v.1.15,2013-01-27 13:29:00,
2013-01-27 08:39:00,22.2,13.2,30.33,WSW,237,5.0,10.0,68,0.00,,,0.00,Wunderground v.1.15,2013-01-27 13:39:00,
2013-01-27 08:49:00,22.5,13.9,30.33,West,269,5.0,5.0,69,0.00,,,0.00,Wunderground v.1.15,2013-01-27 13:49:00,
2013-01-27 08:59:00,22.6,13.3,30.33,NNE,20,5.0,6.0,67,0.00,,,0.00,Wunderground v.1.15,2013-01-27 13:59:00,
2013-01-27 09:09:00,22.8,13.5,30.34,SW,217,5.0,5.0,67,0.00,,,0.00,Wunderground v.1.15,2013-01-27 14:09:00,
2013-01-27 09:19:00,23.1,13.8,30.35,WNW,302,5.0,5.0,67,0.00,,,0.00,Wunderground v.1.15,2013-01-27 14:19:00,
2013-01-27 09:29:00,23.2,13.2,30.35,SW,233,5.0,6.0,65,0.00,,,0.00,Wunderground v.1.15,2013-01-27 14:29:00,
2013-01-27 09:39:00,23.4,12.3,30.35,NE,40,5.0,5.0,62,0.00,,,0.00,Wunderground v.1.15,2013-01-27 14:39:00,
2013-01-27 09:49:00,23.4,12.6,30.35,WSW,240,5.0,11.0,63,0.00,,,0.00,Wunderground v.1.15,2013-01-27 14:49:00,
2013-01-27 09:59:00,23.6,12.5,30.35,NNW,342,4.0,5.0,62,0.00,,,0.00,Wunderground v.1.15,2013-01-27 14:59:00,
2013-01-27 10:09:00,23.9,13.1,30.36,SW,233,5.0,5.0,63,0.00,,,0.00,Wunderground v.1.15,2013-01-27 15:09:00,
2013-01-27 10:19:00,23.9,12.4,30.37,West,265,4.0,10.0,61,0.00,,,0.00,Wunderground v.1.15,2013-01-27 15:19:00,
2013-01-27 10:29:00,24.1,12.9,30.37,WSW,245,4.0,7.0,62,0.00,,,0.00,Wunderground v.1.15,2013-01-27 15:29:00,
2013-01-27 10:39:00,24.1,12.6,30.37,NNE,13,5.0,5.0,61,0.00,,,0.00,Wunderground v.1.15,2013-01-27 15:39:00,
2013-01-27 10:49:00,24.4,14.0,30.37,West,259,4.0,6.0,64,0.00,,,0.00,Wunderground v.1.15,2013-01-27 15:49:00,
2013-01-27 10:59:00,24.6,14.1,30.37,NNW,348,4.0,5.0,64,0.00,,,0.00,Wunderground v.1.15,2013-01-27 15:59:00,
2013-01-27 11:09:00,24.9,14.4,30.37,West,259,4.0,4.0,64,0.00,,,0.00,Wunderground v.1.15,2013-01-27 16:09:00,
2013-01-27 11:19:00,25.5,15.4,30.37,NW,319,4.0,7.0,65,0.00,,,0.00,Wunderground v.1.15,2013-01-27 16:19:00,
2013-01-27 11:29:00,25.9,13.5,30.37,WSW,249,5.0,10.0,59,0.00,,,0.00,Wunderground v.1.15,2013-01-27 16:29:00,
2013-01-27 11:39:00,26.4,12.4,30.36,NW,310,4.0,4.0,55,0.00,,,0.00,Wunderground v.1.15,2013-01-27 16:39:00,
2013-01-27 11:49:00,26.9,12.0,30.35,WSW,244,4.0,4.0,53,0.00,,,0.00,Wunderground v.1.15,2013-01-27 16:49:00,
2013-01-27 11:59:00,27.3,12.0,30.35,SW,229,4.0,5.0,52,0.00,,,0.00,Wunderground v.1.15,2013-01-27 16:59:00,
2013-01-27 12:09:00,27.8,12.0,30.36,NE,40,4.0,4.0,51,0.00,,,0.00,Wunderground v.1.15,2013-01-27 17:09:00,
2013-01-27 12:18:00,28.2,11.5,30.36,NE,36,3.0,13.0,49,0.00,,,0.00,Wunderground v.1.15,2013-01-27 17:18:00,
2013-01-27 12:28:00,28.4,10.7,30.36,NE,38,4.0,4.0,47,0.00,,,0.00,Wunderground v.1.15,2013-01-27 17:28:00,
2013-01-27 12:38:00,28.8,11.1,30.34,NW,304,4.0,4.0,47,0.00,,,0.00,Wunderground v.1.15,2013-01-27 17:38:00,
2013-01-27 12:48:00,29.0,9.8,30.33,SW,233,4.0,4.0,44,0.00,,,0.00,Wunderground v.1.15,2013-01-27 17:48:00,
2013-01-27 12:58:00,29.8,11.0,30.33,NNE,21,3.0,3.0,45,0.00,,,0.00,Wunderground v.1.15,2013-01-27 17:58:00,
2013-01-27 13:08:00,30.0,8.6,30.32,WSW,249,3.0,5.0,40,0.00,,,0.00,Wunderground v.1.15,2013-01-27 18:08:00,
2013-01-27 13:19:00,30.4,7.2,30.31,WSW,252,3.0,4.0,37,0.00,,,0.00,Wunderground v.1.15,2013-01-27 18:19:00,
2013-01-27 13:30:00,30.7,8.1,30.31,NNW,341,3.0,3.0,38,0.00,,,0.00,Wunderground v.1.15,2013-01-27 18:30:00,
2013-01-27 13:39:00,31.1,9.6,30.31,WSW,237,3.0,3.0,40,0.00,,,0.00,Wunderground v.1.15,2013-01-27 18:39:00,
2013-01-27 13:49:00,30.9,7.6,30.32,WSW,245,4.0,5.0,37,0.00,,,0.00,Wunderground v.1.15,2013-01-27 18:49:00,
2013-01-27 13:59:00,31.4,8.1,30.32,SW,218,3.0,3.0,37,0.00,,,0.00,Wunderground v.1.15,2013-01-27 18:59:00,
2013-01-27 14:09:00,31.6,8.3,30.32,NNW,345,3.0,4.0,37,0.00,,,0.00,Wunderground v.1.15,2013-01-27 19:09:00,
2013-01-27 14:19:00,31.9,7.3,30.32,WNW,298,3.0,3.0,35,0.00,,,0.00,Wunderground v.1.15,2013-01-27 19:19:00,
2013-01-27 14:29:00,31.9,7.3,30.32,WSW,238,3.0,3.0,35,0.00,,,0.00,Wunderground v.1.15,2013-01-27 19:29:00,
2013-01-27 14:39:00,32.0,8.0,30.32,SW,232,3.0,4.0,36,0.00,,,0.00,Wunderground v.1.15,2013-01-27 19:39:00,
2013-01-27 14:49:00,32.3,8.9,30.33,SSW,202,3.0,3.0,37,0.00,,,0.00,Wunderground v.1.15,2013-01-27 19:49:00,
2013-01-27 14:59:00,32.4,10.2,30.33,East,96,2.0,2.0,39,0.00,,,0.00,Wunderground v.1.15,2013-01-27 19:59:00,
2013-01-27 15:09:00,32.5,7.8,30.33,SSE,157,3.0,3.0,35,0.00,,,0.00,Wunderground v.1.15,2013-01-27 20:09:00,
2013-01-27 15:19:00,32.8,11.1,30.33,WNW,299,2.0,4.0,40,0.00,,,0.00,Wunderground v.1.15,2013-01-27 20:19:00,
2013-01-27 15:29:00,32.8,8.7,30.33,WSW,256,3.0,3.0,36,0.00,,,0.00,Wunderground v.1.15,2013-01-27 20:29:00,
2013-01-27 15:39:00,32.6,10.3,30.33,WSW,242,3.0,3.0,39,0.00,,,0.00,Wunderground v.1.15,2013-01-27 20:39:00,
2013-01-27 15:49:00,32.4,9.0,30.33,SW,234,2.0,2.0,37,0.00,,,0.00,Wunderground v.1.15,2013-01-27 20:49:00,
2013-01-27 15:59:00,32.5,9.1,30.33,NNE,18,2.0,3.0,37,0.00,,,0.00,Wunderground v.1.15,2013-01-27 20:59:00,
2013-01-27 16:09:00,32.7,11.0,30.33,West,270,2.0,2.0,40,0.00,,,0.00,Wunderground v.1.15,2013-01-27 21:09:00,
2013-01-27 16:19:00,32.6,10.3,30.34,West,261,2.0,2.0,39,0.00,,,0.00,Wunderground v.1.15,2013-01-27 21:19:00,
2013-01-27 16:29:00,32.1,9.3,30.34,ESE,123,2.0,2.0,38,0.00,,,0.00,Wunderground v.1.15,2013-01-27 21:29:00,
2013-01-27 16:39:00,31.5,9.4,30.34,NNW,340,2.0,2.0,39,0.00,,,0.00,Wunderground v.1.15,2013-01-27 21:39:00,
2013-01-27 16:49:00,30.9,9.4,30.34,West,268,2.0,2.0,40,0.00,,,0.00,Wunderground v.1.15,2013-01-27 21:49:00,
2013-01-27 16:59:00,30.5,9.6,30.34,NW,317,2.0,2.0,41,0.00,,,0.00,Wunderground v.1.15,2013-01-27 21:59:00,
2013-01-27 17:09:00,30.4,8.9,30.34,WSW,239,2.0,2.0,40,0.00,,,0.00,Wunderground v.1.15,2013-01-27 22:09:00,
2013-01-27 17:19:00,30.5,8.4,30.35,West,261,2.0,2.0,39,0.00,,,0.00,Wunderground v.1.15,2013-01-27 22:19:00,
2013-01-27 17:29:00,30.8,7.6,30.35,NW,307,3.0,3.0,37,0.00,,,0.00,Wunderground v.1.15,2013-01-27 22:29:00,
2013-01-27 17:39:00,30.8,7.6,30.36,SE,136,3.0,3.0,37,0.00,,,0.00,Wunderground v.1.15,2013-01-27 22:39:00,
2013-01-27 17:49:00,31.0,8.9,30.37,West,273,3.0,3.0,39,0.00,,,0.00,Wunderground v.1.15,2013-01-27 22:49:00,
2013-01-27 17:58:00,31.0,7.7,30.37,ENE,62,3.0,3.0,37,0.00,,,0.00,Wunderground v.1.15,2013-01-27 22:58:00,
2013-01-27 18:08:00,30.6,6.8,30.36,WNW,297,2.0,5.0,36,0.00,,,0.00,Wunderground v.1.15,2013-01-27 23:08:00,
2013-01-27 18:19:00,30.6,8.5,30.36,NW,323,2.0,2.0,39,0.00,,,0.00,Wunderground v.1.15,2013-01-27 23:19:00,
2013-01-27 18:29:00,30.5,8.4,30.36,ENE,61,1.0,3.0,39,0.00,,,0.00,Wunderground v.1.15,2013-01-27 23:29:00,
2013-01-27 18:39:00,30.5,8.4,30.37,WSW,249,2.0,2.0,39,0.00,,,0.00,Wunderground v.1.15,2013-01-27 23:39:00,
2013-01-27 18:49:00,30.5,9.0,30.37,NNW,336,2.0,2.0,40,0.00,,,0.00,Wunderground v.1.15,2013-01-27 23:49:00,
2013-01-27 18:59:00,30.4,10.0,30.37,NNW,327,1.0,4.0,42,0.00,,,0.00,Wunderground v.1.15,2013-01-27 23:59:00,
2013-01-27 19:09:00,30.5,10.1,30.37,WNW,296,2.0,2.0,42,0.00,,,0.00,Wunderground v.1.15,2013-01-28 00:09:00,
2013-01-27 19:19:00,30.5,10.1,30.37,West,261,2.0,2.0,42,0.00,,,0.00,Wunderground v.1.15,2013-01-28 00:19:00,
2013-01-27 19:29:00,30.5,10.6,30.37,SW,234,1.0,1.0,43,0.00,,,0.00,Wunderground v.1.15,2013-01-28 00:29:00,
2013-01-27 19:39:00,30.5,11.7,30.37,NNW,336,1.0,1.0,45,0.00,,,0.00,Wunderground v.1.15,2013-01-28 00:39:00,
2013-01-27 19:49:00,30.7,11.3,30.38,West,261,2.0,3.0,44,0.00,,,0.00,Wunderground v.1.15,2013-01-28 00:49:00,
2013-01-27 19:59:00,30.8,11.4,30.38,SW,214,2.0,2.0,44,0.00,,,0.00,Wunderground v.1.15,2013-01-28 00:59:00,
2013-01-27 20:09:00,30.7,11.8,30.38,West,272,2.0,2.0,45,0.00,,,0.00,Wunderground v.1.15,2013-01-28 01:09:00,
2013-01-27 20:19:00,29.6,10.8,30.37,SW,234,2.0,2.0,45,0.00,,,0.00,Wunderground v.1.15,2013-01-28 01:19:00,
2013-01-27 20:29:00,27.4,11.2,30.37,WNW,286,1.0,1.0,50,0.00,,,0.00,Wunderground v.1.15,2013-01-28 01:29:00,
2013-01-27 20:39:00,28.8,12.0,30.38,SW,233,1.0,1.0,49,0.00,,,0.00,Wunderground v.1.15,2013-01-28 01:39:00,
2013-01-27 20:49:00,29.3,11.5,30.37,SSW,196,1.0,1.0,47,0.00,,,0.00,Wunderground v.1.15,2013-01-28 01:49:00,
2013-01-27 20:59:00,29.6,11.8,30.37,SW,234,1.0,1.0,47,0.00,,,0.00,Wunderground v.1.15,2013-01-28 01:59:00,
2013-01-27 21:09:00,29.4,11.6,30.37,SW,224,1.0,1.0,47,0.00,,,0.00,Wunderground v.1.15,2013-01-28 02:09:00,
2013-01-27 21:19:00,29.6,11.8,30.37,SE,133,1.0,1.0,47,0.00,,,0.00,Wunderground v.1.15,2013-01-28 02:19:00,
2013-01-27 21:29:00,27.9,11.6,30.37,SSE,160,0.0,0.0,50,0.00,,,0.00,Wunderground v.1.15,2013-01-28 02:29:00,
2013-01-27 21:39:00,25.6,10.8,30.37,SSW,198,0.0,0.0,53,0.00,,,0.00,Wunderground v.1.15,2013-01-28 02:39:00,
2013-01-27 21:49:00,24.3,10.4,30.38,SSW,198,0.0,0.0,55,0.00,,,0.00,Wunderground v.1.15,2013-01-28 02:49:00,
2013-01-27 21:59:00,26.3,11.0,30.38,North,5,0.0,0.0,52,0.00,,,0.00,Wunderground v.1.15,2013-01-28 02:59:00,
2013-01-27 22:09:00,26.2,11.8,30.38,North,5,0.0,0.0,54,0.00,,,0.00,Wunderground v.1.15,2013-01-28 03:09:00,
2013-01-27 22:19:00,26.2,11.8,30.38,North,5,0.0,1.0,54,0.00,,,0.00,Wunderground v.1.15,2013-01-28 03:19:00,
2013-01-27 22:29:00,25.4,11.0,30.38,North,5,1.0,1.0,54,0.00,,,0.00,Wunderground v.1.15,2013-01-28 03:29:00,
2013-01-27 22:39:00,25.2,11.3,30.38,North,5,0.0,0.0,55,0.00,,,0.00,Wunderground v.1.15,2013-01-28 03:39:00,
2013-01-27 22:49:00,25.3,11.4,30.38,North,5,0.0,2.0,55,0.00,,,0.00,Wunderground v.1.15,2013-01-28 03:49:00,
2013-01-27 22:59:00,25.8,11.0,30.38,North,5,0.0,1.0,53,0.00,,,0.00,Wunderground v.1.15,2013-01-28 03:59:00,
2013-01-27 23:09:00,26.5,11.7,30.37,North,5,1.0,1.0,53,0.00,,,0.00,Wunderground v.1.15,2013-01-28 04:09:00,
2013-01-27 23:20:00,26.6,11.3,30.37,North,5,0.0,0.0,52,0.00,,,0.00,Wunderground v.1.15,2013-01-28 04:20:00,
2013-01-27 23:30:00,26.8,11.5,30.36,North,5,0.0,0.0,52,0.00,,,0.00,Wunderground v.1.15,2013-01-28 04:30:00,
2013-01-27 23:40:00,26.3,11.0,30.36,North,5,1.0,1.0,52,0.00,,,0.00,Wunderground v.1.15,2013-01-28 04:40:00,
2013-01-27 23:50:00,26.0,11.2,30.36,North,5,0.0,0.0,53,0.00,,,0.00,Wunderground v.1.15,2013-01-28 04:50:00,